createdAt,value
2022-12-16T00:01:56.807Z,86.50
2022-12-16T00:04:25.664Z,77.38
2022-12-16T00:06:54.214Z,86.55
2022-12-16T00:09:23.390Z,82.07
2022-12-16T00:11:53.410Z,82.68
2022-12-16T00:14:23.308Z,90.35
2022-12-16T00:16:51.549Z,80.93
2022-12-16T00:19:21.335Z,78.80
2022-12-16T00:21:49.898Z,85.32
2022-12-16T00:24:20.364Z,83.95
2022-12-16T00:26:48.896Z,86.00
2022-12-16T00:29:19.222Z,86.68
2022-12-16T00:31:48.238Z,85.25
2022-12-16T00:34:17.652Z,58.08
2022-12-16T00:36:46.213Z,77.07
2022-12-16T00:39:14.796Z,79.05
2022-12-16T00:41:43.407Z,75.78
2022-12-16T00:44:12.091Z,77.00
2022-12-16T00:46:41.698Z,85.35
2022-12-16T00:49:10.352Z,78.32
2022-12-16T00:51:38.971Z,77.97
2022-12-16T00:54:07.563Z,84.55
2022-12-16T00:56:37.041Z,79.72
2022-12-16T00:59:05.683Z,66.82
2022-12-16T01:01:34.094Z,79.93
2022-12-16T01:04:04.144Z,88.50
2022-12-16T01:06:32.823Z,79.68
2022-12-16T01:09:02.202Z,77.75
2022-12-16T01:11:30.792Z,81.57
2022-12-16T01:13:59.689Z,78.55
2022-12-16T01:16:27.915Z,75.75
2022-12-16T01:18:56.570Z,82.22
2022-12-16T01:21:26.498Z,77.50
2022-12-16T01:23:55.155Z,80.68
2022-12-16T01:26:23.971Z,82.00
2022-12-16T01:28:52.188Z,76.05
2022-12-16T01:31:22.170Z,76.20
2022-12-16T01:33:50.999Z,75.07
2022-12-16T01:36:20.151Z,74.20
2022-12-16T01:38:50.319Z,55.47
2022-12-16T01:41:19.597Z,87.60
2022-12-16T01:43:48.184Z,77.50
2022-12-16T01:46:21.312Z,80.28
2022-12-16T01:48:52.353Z,78.13
2022-12-16T01:51:26.327Z,83.88
2022-12-16T01:53:58.312Z,73.90
2022-12-16T01:56:29.541Z,79.78
2022-12-16T01:58:58.447Z,78.30
2022-12-16T02:01:27.428Z,83.30
2022-12-16T02:03:58.926Z,79.10
2022-12-16T02:06:27.566Z,77.22
2022-12-16T02:08:59.877Z,86.70
2022-12-16T02:11:52.012Z,78.97
2022-12-16T02:14:39.381Z,81.80
2022-12-16T02:17:12.364Z,81.00
2022-12-16T02:20:01.457Z,72.43
2022-12-16T02:22:35.863Z,76.45
2022-12-16T02:25:24.018Z,74.32
2022-12-16T02:28:02.651Z,75.80
2022-12-16T02:30:48.657Z,79.70
2022-12-16T02:33:37.202Z,83.68
2022-12-16T02:36:12.302Z,78.00
2022-12-16T02:38:44.269Z,76.85
2022-12-16T02:41:18.601Z,81.15
2022-12-16T02:43:54.256Z,76.57
2022-12-16T02:46:27.393Z,75.25
2022-12-16T02:48:56.554Z,81.88
2022-12-16T02:51:27.267Z,76.47
2022-12-16T02:53:56.841Z,78.97
2022-12-16T02:56:37.657Z,78.45
2022-12-16T02:59:14.835Z,86.32
2022-12-16T03:01:49.320Z,74.78
2022-12-16T03:04:21.381Z,80.30
2022-12-16T03:06:52.018Z,81.78
2022-12-16T03:09:22.837Z,79.35
2022-12-16T03:11:52.453Z,83.18
2022-12-16T03:14:21.991Z,80.80
2022-12-16T03:16:52.147Z,66.77
2022-12-16T03:19:21.322Z,80.18
2022-12-16T03:21:53.541Z,78.82
2022-12-16T03:24:22.229Z,75.75
2022-12-16T03:26:57.386Z,83.32
2022-12-16T03:29:29.000Z,79.88
2022-12-16T03:32:00.238Z,83.90
2022-12-16T03:34:34.362Z,79.22
2022-12-16T03:37:06.399Z,78.47
2022-12-16T03:39:36.995Z,79.63
2022-12-16T03:42:05.909Z,77.00
2022-12-16T03:44:37.549Z,80.60
2022-12-16T03:47:08.063Z,77.78
2022-12-16T03:52:04.919Z,77.95
2022-12-16T03:54:34.737Z,80.95
2022-12-16T03:57:03.800Z,59.08
2022-12-16T03:59:32.468Z,79.63
2022-12-16T04:02:01.454Z,75.97
2022-12-16T04:04:31.252Z,75.15
2022-12-16T04:07:13.645Z,72.38
2022-12-16T04:09:42.272Z,79.63
2022-12-16T04:12:28.534Z,72.85
2022-12-16T04:15:14.407Z,76.13
2022-12-16T04:18:00.576Z,75.85
2022-12-16T04:20:50.831Z,70.70
2022-12-16T04:23:40.109Z,79.50
2022-12-16T04:26:08.463Z,78.97
2022-12-16T04:28:37.055Z,70.55
2022-12-16T04:31:06.121Z,81.70
2022-12-16T04:33:52.310Z,68.07
2022-12-16T04:36:40.056Z,78.47
2022-12-16T04:39:37.561Z,74.90
2022-12-16T04:42:23.486Z,79.55
2022-12-16T04:45:09.709Z,81.25
2022-12-16T04:47:57.633Z,80.90
2022-12-16T04:50:43.861Z,79.15
2022-12-16T04:53:31.056Z,83.00
2022-12-16T04:56:17.525Z,86.68
2022-12-16T04:59:03.373Z,76.25
2022-12-16T05:01:46.031Z,79.82
2022-12-16T05:04:32.589Z,77.38
2022-12-16T05:07:18.616Z,83.70
2022-12-16T05:10:06.237Z,77.53
2022-12-16T05:12:57.757Z,83.65
2022-12-16T05:15:43.977Z,84.60
2022-12-16T05:18:30.939Z,85.82
2022-12-16T05:21:17.132Z,82.18
2022-12-16T05:24:02.972Z,84.35
2022-12-16T05:26:49.704Z,75.43
2022-12-16T05:29:35.955Z,85.18
2022-12-16T05:32:22.844Z,80.50
2022-12-16T05:35:05.284Z,88.90
2022-12-16T05:37:51.597Z,81.35
2022-12-16T05:40:37.584Z,94.50
2022-12-16T05:43:25.239Z,88.38
2022-12-16T05:46:11.517Z,91.05
2022-12-16T05:48:57.942Z,92.18
2022-12-16T05:51:44.221Z,87.00
2022-12-16T05:54:31.649Z,81.80
2022-12-16T05:57:17.822Z,83.13
2022-12-16T06:00:05.741Z,89.32
2022-12-16T06:02:57.596Z,89.57
2022-12-16T06:05:43.806Z,82.05
2022-12-16T06:08:29.379Z,88.32
2022-12-16T06:11:15.316Z,89.68
2022-12-16T06:14:01.090Z,87.00
2022-12-16T06:16:48.611Z,87.00
2022-12-16T06:19:34.696Z,95.90
2022-12-16T06:22:35.254Z,83.10
2022-12-16T06:25:21.705Z,79.50
2022-12-16T06:28:10.015Z,80.88
2022-12-16T06:30:57.197Z,82.75
2022-12-16T06:33:45.302Z,80.68
2022-12-16T06:36:30.720Z,91.30
2022-12-16T06:39:16.795Z,86.53
2022-12-16T06:42:03.088Z,82.93
2022-12-16T06:44:49.278Z,92.35
2022-12-16T06:47:35.328Z,93.13
2022-12-16T06:50:22.648Z,90.53
2022-12-16T06:53:08.686Z,90.53
2022-12-16T06:55:54.761Z,90.80
2022-12-16T06:58:39.958Z,85.82
2022-12-16T07:01:26.400Z,93.13
2022-12-16T07:04:12.716Z,93.47
2022-12-16T07:07:00.421Z,96.30
2022-12-16T07:09:46.524Z,97.32
2022-12-16T07:12:32.504Z,89.07
2022-12-16T07:15:18.588Z,99.03
2022-12-16T07:18:04.459Z,95.55
2022-12-16T07:20:50.551Z,93.43
2022-12-16T07:23:38.122Z,100.35
2022-12-16T07:26:24.152Z,95.57
2022-12-16T07:29:10.090Z,92.85
2022-12-16T07:31:56.036Z,103.20
2022-12-16T07:34:45.912Z,97.38
2022-12-16T07:37:34.638Z,100.18
2022-12-16T07:40:24.975Z,100.20
2022-12-16T07:43:11.016Z,87.22
2022-12-16T07:45:57.166Z,104.68
2022-12-16T07:48:43.128Z,93.40
2022-12-16T07:51:29.461Z,94.72
2022-12-16T07:54:15.910Z,91.30
2022-12-16T07:57:03.208Z,93.13
2022-12-16T07:59:49.379Z,91.13
2022-12-16T08:02:35.449Z,95.55
2022-12-16T08:05:22.365Z,88.45
2022-12-16T08:08:08.610Z,99.82
2022-12-16T08:10:55.320Z,95.20
2022-12-16T08:13:43.670Z,97.47
2022-12-16T08:16:29.880Z,98.88
2022-12-16T08:19:16.276Z,93.55
2022-12-16T08:22:02.324Z,94.60
2022-12-16T08:24:53.289Z,95.05
2022-12-16T08:27:39.532Z,106.97
2022-12-16T08:30:30.225Z,103.88
2022-12-16T08:33:30.876Z,108.35
2022-12-16T08:36:17.081Z,99.18
2022-12-16T08:39:05.088Z,102.65
2022-12-16T08:41:51.234Z,99.03
2022-12-16T08:44:37.430Z,94.63
2022-12-16T08:47:24.603Z,103.38
2022-12-16T08:50:10.764Z,95.55
2022-12-16T08:52:56.770Z,92.55
2022-12-16T08:55:57.257Z,100.43
2022-12-16T08:58:43.313Z,98.25
2022-12-16T09:01:29.757Z,93.25
2022-12-16T09:04:17.446Z,94.18
2022-12-16T09:07:03.683Z,106.10
2022-12-16T09:09:49.564Z,92.65
2022-12-16T09:12:35.711Z,93.93
2022-12-16T09:15:21.854Z,92.22
2022-12-16T09:18:13.448Z,96.15
2022-12-16T09:21:00.864Z,99.57
2022-12-16T09:23:46.963Z,96.93
2022-12-16T09:26:33.138Z,102.72
2022-12-16T09:29:19.010Z,105.53
2022-12-16T09:32:04.992Z,94.00
2022-12-16T09:34:51.239Z,102.15
2022-12-16T09:37:38.790Z,93.85
2022-12-16T09:40:27.137Z,96.75
2022-12-16T09:43:19.192Z,96.32
2022-12-16T09:46:11.314Z,98.07
2022-12-16T09:49:01.219Z,98.45
2022-12-16T09:51:48.033Z,94.53
2022-12-16T09:54:38.167Z,87.80
2022-12-16T10:00:13.160Z,88.05
2022-12-16T10:03:06.546Z,86.35
2022-12-16T10:05:57.743Z,87.72
2022-12-16T10:08:50.777Z,80.15
2022-12-16T10:11:42.125Z,90.97
2022-12-16T10:14:32.087Z,94.47
2022-12-16T10:17:24.105Z,86.78
2022-12-16T10:20:15.114Z,85.72
2022-12-16T10:23:06.543Z,88.22
2022-12-16T10:25:58.746Z,85.45
2022-12-16T10:29:00.851Z,89.93
2022-12-16T10:31:47.100Z,89.13
2022-12-16T10:34:35.204Z,97.88
2022-12-16T10:37:21.533Z,90.15
2022-12-16T10:40:10.227Z,89.57
2022-12-16T10:43:03.381Z,89.65
2022-12-16T10:45:54.939Z,88.38
2022-12-16T10:48:54.947Z,96.65
2022-12-16T10:51:45.257Z,83.82
2022-12-16T10:54:47.009Z,83.40
2022-12-16T10:57:38.144Z,86.78
2022-12-16T11:00:25.193Z,82.55
2022-12-16T11:03:18.409Z,85.22
2022-12-16T11:06:04.663Z,82.70
2022-12-16T11:08:52.773Z,77.40
2022-12-16T11:11:43.943Z,76.68
2022-12-16T11:14:36.482Z,79.60
2022-12-16T11:17:34.579Z,82.80
2022-12-16T11:20:36.516Z,81.15
2022-12-16T11:23:33.535Z,80.50
2022-12-16T11:26:24.720Z,77.45
2022-12-16T11:29:34.251Z,81.25
2022-12-16T11:32:22.311Z,82.30
2022-12-16T11:35:11.504Z,73.03
2022-12-16T11:38:00.702Z,77.20
2022-12-16T11:40:48.280Z,80.90
2022-12-16T11:43:35.961Z,85.47
2022-12-16T11:46:24.934Z,79.03
2022-12-16T11:49:14.967Z,78.03
2022-12-16T11:52:28.130Z,83.47
2022-12-16T11:55:16.070Z,76.90
2022-12-16T11:58:06.206Z,83.03
2022-12-16T12:00:52.826Z,81.00
2022-12-16T12:03:42.101Z,78.00
2022-12-16T12:06:35.468Z,80.10
2022-12-16T12:09:25.978Z,76.30
2022-12-16T12:12:17.696Z,81.30
2022-12-16T12:15:08.714Z,77.05
2022-12-16T12:18:00.804Z,81.28
2022-12-16T12:21:01.931Z,79.70
2022-12-16T12:23:56.929Z,83.03
2022-12-16T12:26:46.578Z,76.50
2022-12-16T12:29:38.977Z,69.13
2022-12-16T12:32:33.451Z,79.20
2022-12-16T12:35:27.449Z,75.18
2022-12-16T12:38:18.961Z,83.22
2022-12-16T12:41:09.541Z,77.53
2022-12-16T12:44:00.710Z,73.13
2022-12-16T12:46:52.477Z,82.45
2022-12-16T12:49:44.470Z,78.57
2022-12-16T12:52:38.937Z,75.10
2022-12-16T12:55:29.448Z,75.47
2022-12-16T12:58:15.996Z,72.75
2022-12-16T13:01:04.947Z,78.88
2022-12-16T13:03:56.208Z,80.80
2022-12-16T13:06:42.802Z,79.38
2022-12-16T13:09:52.519Z,72.53
2022-12-16T13:12:47.076Z,77.53
2022-12-16T13:15:53.938Z,75.53
2022-12-16T13:18:45.428Z,76.72
2022-12-16T13:22:03.804Z,74.25
2022-12-16T13:25:08.142Z,75.85
2022-12-16T13:28:26.635Z,79.55
2022-12-16T13:31:24.918Z,79.45
2022-12-16T13:34:13.007Z,70.75
2022-12-16T13:36:59.556Z,64.05
2022-12-16T13:39:48.377Z,73.60
2022-12-16T13:42:54.352Z,73.10
2022-12-16T13:45:49.822Z,71.22
2022-12-16T13:48:55.911Z,72.55
2022-12-16T13:52:24.176Z,73.90
2022-12-16T13:55:33.059Z,66.38
2022-12-16T13:58:22.929Z,83.45
2022-12-16T14:01:18.218Z,90.78
2022-12-16T14:04:21.753Z,80.65
2022-12-16T14:07:08.029Z,93.65
2022-12-16T14:09:55.836Z,89.07
2022-12-16T14:12:59.873Z,83.40
2022-12-16T14:15:50.394Z,82.05
2022-12-16T14:18:45.570Z,85.13
2022-12-16T14:21:35.776Z,88.60
2022-12-16T14:27:09.303Z,89.53
2022-12-16T14:29:56.600Z,76.30
2022-12-16T14:32:46.915Z,93.15
2022-12-16T14:35:34.388Z,90.18
2022-12-16T14:38:39.413Z,87.47
2022-12-16T14:41:29.439Z,94.30
2022-12-16T14:44:15.432Z,80.65
2022-12-16T14:47:08.225Z,87.60
2022-12-16T14:50:01.222Z,85.53
2022-12-16T14:52:47.246Z,87.90
2022-12-16T14:55:35.149Z,95.95
2022-12-16T14:58:23.174Z,83.78
2022-12-16T15:01:15.513Z,86.95
2022-12-16T15:04:05.206Z,83.90
2022-12-16T15:06:53.567Z,63.93
2022-12-16T15:09:44.062Z,80.65
2022-12-16T15:12:31.472Z,81.50
2022-12-16T15:15:18.123Z,82.15
2022-12-16T15:18:08.554Z,86.30
2022-12-16T15:20:59.526Z,88.05
2022-12-16T15:23:47.733Z,76.28
2022-12-16T15:26:36.663Z,79.07
2022-12-16T15:29:23.157Z,81.38
2022-12-16T15:32:09.395Z,86.38
2022-12-16T15:35:04.374Z,82.05
2022-12-16T15:38:00.603Z,83.68
2022-12-16T15:40:52.192Z,81.47
2022-12-16T15:43:40.560Z,82.60
2022-12-16T15:46:36.244Z,81.82
2022-12-16T15:49:23.687Z,79.88
2022-12-16T15:52:10.132Z,80.60
2022-12-16T15:55:10.539Z,73.25
2022-12-16T15:57:57.590Z,74.85
2022-12-16T16:00:45.638Z,67.28
2022-12-16T16:03:37.877Z,68.93
2022-12-16T16:06:33.666Z,73.53
2022-12-16T16:09:26.367Z,71.00
2022-12-16T16:12:14.109Z,75.97
2022-12-16T16:15:00.078Z,79.13
2022-12-16T16:17:46.387Z,70.18
2022-12-16T16:20:34.057Z,65.38
2022-12-16T16:23:19.926Z,71.70
2022-12-16T16:26:06.539Z,70.72
2022-12-16T16:28:54.334Z,73.50
2022-12-16T16:31:40.368Z,69.38
2022-12-16T16:34:23.283Z,66.75
2022-12-16T16:37:12.511Z,70.38
2022-12-16T16:39:58.474Z,75.05
2022-12-16T16:42:59.111Z,72.35
2022-12-16T16:45:46.709Z,79.65
2022-12-16T16:48:34.953Z,78.18
2022-12-16T16:51:22.768Z,69.78
2022-12-16T16:54:09.034Z,68.80
2022-12-16T16:56:56.167Z,80.18
2022-12-16T16:59:42.709Z,77.28
2022-12-16T17:02:40.536Z,68.63
2022-12-16T17:05:28.928Z,72.43
2022-12-16T17:08:15.570Z,81.90
2022-12-16T17:11:01.687Z,78.05
2022-12-16T17:13:47.954Z,73.28
2022-12-16T17:16:42.489Z,81.85
2022-12-16T17:19:29.877Z,83.38
2022-12-16T17:22:16.139Z,83.88
2022-12-16T17:25:02.212Z,85.88
2022-12-16T17:27:59.840Z,78.03
2022-12-16T17:30:47.822Z,92.15
2022-12-16T17:33:35.068Z,80.60
2022-12-16T17:36:26.125Z,78.75
2022-12-16T17:39:16.707Z,77.53
2022-12-16T17:42:02.739Z,84.25
2022-12-16T17:44:48.707Z,94.95
2022-12-16T17:47:34.855Z,70.45
2022-12-16T17:50:22.023Z,73.80
2022-12-16T17:53:12.656Z,76.60
2022-12-16T17:55:58.634Z,79.63
2022-12-16T17:58:57.230Z,81.75
2022-12-16T18:01:43.567Z,78.88
2022-12-16T18:04:29.917Z,81.70
2022-12-16T18:07:15.860Z,78.00
2022-12-16T18:10:03.210Z,76.55
2022-12-16T18:12:49.230Z,83.05
2022-12-16T18:15:35.660Z,78.95
2022-12-16T18:18:22.295Z,86.68
2022-12-16T18:21:21.391Z,78.18
2022-12-16T18:24:07.185Z,81.78
2022-12-16T18:26:54.861Z,81.95
2022-12-16T18:29:40.785Z,75.70
2022-12-16T18:32:30.525Z,75.90
2022-12-16T18:35:19.079Z,85.25
2022-12-16T18:38:05.291Z,73.15
2022-12-16T18:40:51.191Z,69.28
2022-12-16T18:43:38.673Z,74.38
2022-12-16T18:46:27.468Z,75.97
2022-12-16T18:49:13.763Z,72.63
2022-12-16T18:52:11.403Z,71.88
2022-12-16T18:54:57.780Z,64.47
2022-12-16T18:57:43.667Z,63.25
2022-12-16T19:00:32.129Z,66.22
2022-12-16T19:03:20.395Z,66.20
2022-12-16T19:06:12.169Z,66.22
2022-12-16T19:08:58.380Z,70.18
2022-12-16T19:11:46.004Z,64.22
2022-12-16T19:14:31.797Z,63.33
2022-12-16T19:17:19.306Z,68.00
2022-12-16T19:20:05.231Z,64.85
2022-12-16T19:22:51.335Z,64.60
2022-12-16T19:25:37.609Z,64.03
2022-12-16T19:28:23.601Z,62.70
2022-12-16T19:31:13.151Z,64.93
2022-12-16T19:34:00.967Z,68.40
2022-12-16T19:36:47.673Z,67.97
2022-12-16T19:39:33.647Z,66.78
2022-12-16T19:42:19.599Z,71.43
2022-12-16T19:45:05.651Z,71.40
2022-12-16T19:47:51.736Z,67.00
2022-12-16T19:50:40.270Z,69.07
2022-12-16T19:53:28.360Z,71.07
2022-12-16T19:56:15.881Z,69.47
2022-12-16T19:59:02.469Z,74.80
2022-12-16T20:01:49.322Z,77.68
2022-12-16T20:04:38.053Z,66.13
2022-12-16T20:07:23.454Z,74.25
2022-12-16T20:10:09.908Z,77.82
2022-12-16T20:12:56.197Z,69.60
2022-12-16T20:15:42.354Z,69.93
2022-12-16T20:18:28.266Z,74.32
2022-12-16T20:21:14.328Z,77.63
2022-12-16T20:24:02.182Z,74.80
2022-12-16T20:26:48.084Z,64.97
2022-12-16T20:29:34.321Z,74.55
2022-12-16T20:32:20.198Z,76.03
2022-12-16T20:35:06.283Z,73.43
2022-12-16T20:37:52.297Z,77.15
2022-12-16T20:40:44.578Z,77.28
2022-12-16T20:43:31.192Z,74.53
2022-12-16T20:46:23.544Z,68.20
2022-12-16T20:49:09.802Z,75.95
2022-12-16T20:51:56.280Z,71.38
2022-12-16T20:54:43.530Z,72.20
2022-12-16T20:57:31.098Z,82.60
2022-12-16T21:00:17.322Z,77.35
2022-12-16T21:03:03.751Z,75.47
2022-12-16T21:05:50.601Z,75.32
2022-12-16T21:08:37.777Z,72.20
2022-12-16T21:11:23.836Z,69.72
2022-12-16T21:14:11.569Z,72.03
2022-12-16T21:16:57.959Z,72.40
2022-12-16T21:19:43.903Z,75.47
2022-12-16T21:22:30.001Z,74.15
2022-12-16T21:25:21.106Z,75.32
2022-12-16T21:28:14.672Z,83.78
2022-12-16T21:31:02.017Z,73.47
2022-12-16T21:33:48.590Z,70.72
2022-12-16T21:36:35.024Z,75.13
2022-12-16T21:39:21.572Z,69.32
2022-12-16T21:42:07.554Z,69.22
2022-12-16T21:44:53.535Z,69.78
2022-12-16T21:47:43.730Z,71.00
2022-12-16T21:50:29.291Z,69.00
2022-12-16T21:53:15.156Z,78.72
2022-12-16T21:56:01.178Z,76.28
2022-12-16T21:58:47.215Z,79.65
2022-12-16T22:01:33.248Z,76.80
2022-12-16T22:04:23.134Z,75.60
2022-12-16T22:07:09.075Z,72.80
2022-12-16T22:10:10.095Z,79.18
2022-12-16T22:12:56.347Z,76.05
2022-12-16T22:15:42.288Z,82.43
2022-12-16T22:18:28.333Z,75.53
2022-12-16T22:21:17.630Z,83.03
2022-12-16T22:24:04.820Z,71.07
2022-12-16T22:26:50.581Z,82.90
2022-12-16T22:29:36.802Z,78.93
2022-12-16T22:32:22.773Z,69.68
2022-12-16T22:35:08.758Z,72.93
2022-12-16T22:37:56.930Z,76.60
2022-12-16T22:40:42.791Z,71.57
2022-12-16T22:43:30.391Z,80.97
2022-12-16T22:46:18.118Z,73.78
2022-12-16T22:49:05.270Z,74.47
2022-12-16T22:51:52.149Z,73.45
2022-12-16T22:54:39.949Z,70.68
2022-12-16T22:57:25.888Z,73.63
2022-12-16T23:00:11.891Z,77.93
2022-12-16T23:02:58.082Z,60.53
2022-12-16T23:05:44.027Z,67.47
2022-12-16T23:08:30.026Z,66.63
2022-12-16T23:11:18.476Z,73.85
2022-12-16T23:14:05.496Z,73.15
2022-12-16T23:16:51.865Z,66.53
2022-12-16T23:19:39.428Z,66.95
2022-12-16T23:22:25.639Z,68.80
2022-12-16T23:25:11.685Z,70.18
2022-12-16T23:27:59.187Z,78.90
2022-12-16T23:30:44.595Z,68.22
2022-12-16T23:33:30.718Z,72.82
2022-12-16T23:36:16.851Z,72.88
2022-12-16T23:39:02.869Z,71.00
2022-12-16T23:41:48.792Z,69.53
2022-12-16T23:44:36.593Z,74.78
2022-12-16T23:47:22.151Z,79.53
2022-12-16T23:50:15.464Z,70.30
2022-12-16T23:53:02.273Z,76.53
2022-12-16T23:55:48.281Z,71.50
2022-12-16T23:58:34.553Z,61.88
